createdAt,value
2022-11-10T00:01:25.324Z,97829.50
2022-11-10T00:04:10.351Z,97826.50
2022-11-10T00:06:55.768Z,97831.84
2022-11-10T00:09:40.633Z,97826.00
2022-11-10T00:12:25.762Z,97831.13
2022-11-10T00:15:37.622Z,97820.75
2022-11-10T00:18:22.816Z,97820.63
2022-11-10T00:21:09.364Z,97824.31
2022-11-10T00:23:54.174Z,97829.88
2022-11-10T00:26:39.090Z,97838.47
2022-11-10T00:29:23.924Z,97835.19
2022-11-10T00:32:09.048Z,97837.78
2022-11-10T00:34:54.369Z,97846.53
2022-11-10T00:37:39.236Z,97850.78
2022-11-10T00:40:24.243Z,97853.75
2022-11-10T00:43:09.232Z,97849.09
2022-11-10T00:45:54.386Z,97852.50
2022-11-10T00:48:39.357Z,97861.75
2022-11-10T00:51:25.754Z,97854.84
2022-11-10T00:54:11.082Z,97855.19
2022-11-10T00:56:55.831Z,97849.44
2022-11-10T00:59:40.737Z,97852.03
2022-11-10T01:02:25.508Z,97857.53
2022-11-10T01:05:10.495Z,97858.84
2022-11-10T01:07:55.196Z,97867.47
2022-11-10T01:10:40.079Z,97866.63
2022-11-10T01:13:25.201Z,97865.88
2022-11-10T01:16:12.002Z,97866.84
2022-11-10T01:18:58.206Z,97865.31
2022-11-10T01:21:43.007Z,97877.56
2022-11-10T01:24:27.901Z,97873.44
2022-11-10T01:27:12.897Z,97874.50
2022-11-10T01:29:57.853Z,97877.34
2022-11-10T01:32:42.849Z,97882.69
2022-11-10T01:35:28.188Z,97881.47
2022-11-10T01:38:13.049Z,97887.66
2022-11-10T01:40:58.548Z,97891.94
2022-11-10T01:43:43.822Z,97893.59
2022-11-10T01:46:29.006Z,97900.91
2022-11-10T01:49:15.449Z,97904.56
2022-11-10T01:52:09.314Z,97905.78
2022-11-10T01:54:54.710Z,97908.69
2022-11-10T01:57:40.442Z,97904.34
2022-11-10T02:00:25.412Z,97903.09
2022-11-10T02:03:16.403Z,97914.78
2022-11-10T02:06:01.620Z,97919.19
2022-11-10T02:08:47.270Z,97917.09
2022-11-10T02:11:33.427Z,97915.38
2022-11-10T02:14:18.604Z,97917.72
2022-11-10T02:17:03.523Z,97919.41
2022-11-10T02:19:48.363Z,97924.28
2022-11-10T02:22:33.929Z,97913.47
2022-11-10T02:25:23.006Z,97915.91
2022-11-10T02:28:08.215Z,97917.22
2022-11-10T02:30:53.598Z,97913.06
2022-11-10T02:33:39.046Z,97914.03
2022-11-10T02:36:24.170Z,97916.50
2022-11-10T02:39:08.945Z,97925.38
2022-11-10T02:41:53.781Z,97930.34
2022-11-10T02:44:39.901Z,97915.53
2022-11-10T02:47:24.954Z,97922.94
2022-11-10T02:50:09.989Z,97925.22
2022-11-10T02:52:55.294Z,97934.94
2022-11-10T02:55:40.638Z,97935.81
2022-11-10T02:58:25.609Z,97939.44
2022-11-10T03:01:10.636Z,97937.88
2022-11-10T03:03:55.990Z,97950.78
2022-11-10T03:06:41.308Z,97951.28
2022-11-10T03:09:26.120Z,97949.09
2022-11-10T03:12:11.009Z,97963.16
2022-11-10T03:14:55.817Z,97960.25
2022-11-10T03:17:41.657Z,97965.59
2022-11-10T03:20:26.779Z,97961.59
2022-11-10T03:23:11.849Z,97956.16
2022-11-10T03:25:57.265Z,97960.56
2022-11-10T03:28:42.723Z,97973.44
2022-11-10T03:31:28.249Z,97969.66
2022-11-10T03:34:13.528Z,97988.38
2022-11-10T03:36:58.713Z,97987.88
2022-11-10T03:39:44.085Z,97997.00
2022-11-10T03:42:28.771Z,97989.84
2022-11-10T03:45:14.578Z,97986.22
2022-11-10T03:47:59.676Z,97992.56
2022-11-10T03:50:44.962Z,98000.09
2022-11-10T03:53:30.245Z,98007.63
2022-11-10T03:56:15.740Z,98012.19
2022-11-10T03:59:00.668Z,98025.38
2022-11-10T04:01:45.593Z,98014.41
2022-11-10T04:04:49.290Z,98021.19
2022-11-10T04:07:53.166Z,98022.94
2022-11-10T04:10:38.176Z,98025.41
2022-11-10T04:13:41.923Z,98025.63
2022-11-10T04:16:26.813Z,98016.41
2022-11-10T04:19:11.841Z,98009.91
2022-11-10T04:21:57.324Z,98005.63
2022-11-10T04:24:42.513Z,98012.63
2022-11-10T04:27:27.514Z,98021.69
2022-11-10T04:30:12.460Z,98018.03
2022-11-10T04:32:57.829Z,98024.97
2022-11-10T04:35:43.070Z,98023.53
2022-11-10T04:38:28.004Z,98028.97
2022-11-10T04:41:13.571Z,98035.44
2022-11-10T04:43:58.932Z,98036.38
2022-11-10T04:46:44.604Z,98053.09
2022-11-10T04:49:29.541Z,98047.56
2022-11-10T04:52:14.865Z,98050.16
2022-11-10T04:55:00.019Z,98046.59
2022-11-10T04:57:45.423Z,98056.53
2022-11-10T05:00:30.414Z,98056.75
2022-11-10T05:03:15.673Z,98059.03
2022-11-10T05:06:00.950Z,98065.72
2022-11-10T05:08:47.812Z,98071.06
2022-11-10T05:11:32.849Z,98072.50
2022-11-10T05:14:17.828Z,98066.00
2022-11-10T05:17:02.620Z,98064.59
2022-11-10T05:19:48.256Z,98077.19
2022-11-10T05:22:33.251Z,98080.59
2022-11-10T05:25:18.262Z,98082.81
2022-11-10T05:28:03.533Z,98080.31
2022-11-10T05:30:48.490Z,98080.25
2022-11-10T05:33:34.349Z,98079.38
2022-11-10T05:36:19.777Z,98089.09
2022-11-10T05:39:05.067Z,98093.59
2022-11-10T05:41:50.010Z,98107.22
2022-11-10T05:44:34.925Z,98098.91
2022-11-10T05:47:19.919Z,98108.56
2022-11-10T05:50:05.955Z,98109.09
2022-11-10T05:52:52.481Z,98115.22
2022-11-10T05:55:37.619Z,98125.31
2022-11-10T05:58:23.049Z,98130.19
2022-11-10T06:01:08.256Z,98137.09
2022-11-10T06:03:53.242Z,98136.19
2022-11-10T06:06:38.761Z,98136.31
2022-11-10T06:09:23.517Z,98151.97
2022-11-10T06:12:08.611Z,98156.44
2022-11-10T06:14:53.456Z,98168.97
2022-11-10T06:17:38.314Z,98170.09
2022-11-10T06:20:24.065Z,98177.28
2022-11-10T06:23:12.517Z,98174.09
2022-11-10T06:25:57.862Z,98183.59
2022-11-10T06:28:43.028Z,98183.06
2022-11-10T06:31:28.211Z,98187.47
2022-11-10T06:34:13.589Z,98196.72
2022-11-10T06:36:58.682Z,98195.19
2022-11-10T06:39:43.945Z,98197.31
2022-11-10T06:42:28.877Z,98214.34
2022-11-10T06:45:14.146Z,98213.97
2022-11-10T06:48:06.877Z,98225.47
2022-11-10T06:50:51.859Z,98228.75
2022-11-10T06:53:37.245Z,98232.72
2022-11-10T06:56:22.622Z,98241.56
2022-11-10T06:59:07.743Z,98248.84
2022-11-10T07:01:52.810Z,98248.38
2022-11-10T07:04:37.838Z,98255.06
2022-11-10T07:07:23.258Z,98262.78
2022-11-10T07:10:08.984Z,98262.50
2022-11-10T07:13:00.882Z,98271.59
2022-11-10T07:15:45.772Z,98269.63
2022-11-10T07:18:30.733Z,98281.56
2022-11-10T07:21:15.764Z,98289.41
2022-11-10T07:24:01.422Z,98294.44
2022-11-10T07:26:46.837Z,98290.00
2022-11-10T07:29:31.984Z,98288.09
2022-11-10T07:32:17.035Z,98292.50
2022-11-10T07:35:02.010Z,98296.72
2022-11-10T07:37:47.127Z,98300.34
2022-11-10T07:40:32.249Z,98306.16
2022-11-10T07:43:17.538Z,98307.72
2022-11-10T07:46:02.599Z,98310.31
2022-11-10T07:48:48.138Z,98316.38
2022-11-10T07:51:33.332Z,98317.19
2022-11-10T07:54:18.304Z,98317.66
2022-11-10T07:57:03.306Z,98319.41
2022-11-10T07:59:48.148Z,98322.13
2022-11-10T08:02:33.041Z,98325.09
2022-11-10T08:05:18.209Z,98321.66
2022-11-10T08:08:06.647Z,98329.97
2022-11-10T08:10:51.863Z,98335.19
2022-11-10T08:13:37.001Z,98343.53
2022-11-10T08:16:21.934Z,98347.50
2022-11-10T08:19:07.968Z,98352.44
2022-11-10T08:21:53.209Z,98353.22
2022-11-10T08:24:38.293Z,98366.50
2022-11-10T08:27:23.162Z,98372.44
2022-11-10T08:30:08.267Z,98377.63
2022-11-10T08:32:54.250Z,98377.75
2022-11-10T08:35:40.937Z,98383.84
2022-11-10T08:38:26.133Z,98396.97
2022-11-10T08:41:10.980Z,98399.94
2022-11-10T08:43:55.860Z,98407.91
2022-11-10T08:46:44.174Z,98416.34
2022-11-10T08:49:29.270Z,98415.38
2022-11-10T08:52:14.130Z,98418.06
2022-11-10T08:54:59.330Z,98425.50
2022-11-10T08:57:44.224Z,98433.69
2022-11-10T09:00:30.843Z,98436.66
2022-11-10T09:03:15.800Z,98447.59
2022-11-10T09:06:00.804Z,98453.97
2022-11-10T09:08:45.591Z,98457.66
2022-11-10T09:11:30.810Z,98466.19
2022-11-10T09:14:15.700Z,98480.09
2022-11-10T09:17:00.620Z,98486.09
2022-11-10T09:19:45.610Z,98491.94
2022-11-10T09:22:30.932Z,98487.53
2022-11-10T09:25:15.776Z,98495.94
2022-11-10T09:28:01.015Z,98499.09
2022-11-10T09:30:46.958Z,98504.72
2022-11-10T09:33:31.789Z,98503.00
2022-11-10T09:36:16.887Z,98511.91
2022-11-10T09:39:01.756Z,98513.66
2022-11-10T09:41:47.231Z,98513.28
2022-11-10T09:44:32.037Z,98522.84
2022-11-10T09:47:55.589Z,98521.31
2022-11-10T09:50:31.070Z,98526.94
2022-11-10T09:53:36.569Z,98532.94
2022-11-10T09:56:33.127Z,98531.97
2022-11-10T09:59:34.722Z,98541.91
2022-11-10T10:02:22.703Z,98541.19
2022-11-10T10:05:16.664Z,98543.13
2022-11-10T10:08:04.742Z,98540.94
2022-11-10T10:11:13.962Z,98544.97
2022-11-10T10:14:17.622Z,98548.78
2022-11-10T10:17:18.382Z,98546.53
2022-11-10T10:20:03.317Z,98539.44
2022-11-10T10:22:48.172Z,98534.59
2022-11-10T10:25:33.259Z,98545.94
2022-11-10T10:28:33.596Z,98548.63
2022-11-10T10:31:20.014Z,98542.16
2022-11-10T10:34:09.564Z,98538.97
2022-11-10T10:36:56.551Z,98552.06
2022-11-10T10:39:44.261Z,98545.59
2022-11-10T10:42:33.921Z,98548.50
2022-11-10T10:45:18.977Z,98547.44
2022-11-10T10:48:23.356Z,98552.19
2022-11-10T10:51:08.641Z,98551.06
2022-11-10T10:53:53.753Z,98554.09
2022-11-10T10:56:38.462Z,98547.03
2022-11-10T10:59:23.776Z,98551.09
2022-11-10T11:02:41.254Z,98550.63
2022-11-10T11:05:26.041Z,98555.53
2022-11-10T11:08:17.058Z,98559.72
2022-11-10T11:11:09.736Z,98564.38
2022-11-10T11:14:12.523Z,98565.28
2022-11-10T11:17:02.252Z,98570.28
2022-11-10T11:19:48.077Z,98568.78
2022-11-10T11:22:47.796Z,98576.38
2022-11-10T11:25:34.721Z,98576.97
2022-11-10T11:28:31.081Z,98575.38
2022-11-10T11:31:41.689Z,98574.25
2022-11-10T11:34:30.717Z,98580.66
2022-11-10T11:37:21.282Z,98575.78
2022-11-10T11:40:19.148Z,98575.63
2022-11-10T11:43:13.692Z,98580.97
2022-11-10T11:46:01.552Z,98582.44
2022-11-10T11:48:46.434Z,98583.78
2022-11-10T11:51:50.210Z,98583.59
2022-11-10T11:54:35.430Z,98585.06
2022-11-10T11:57:38.670Z,98588.69
2022-11-10T12:00:25.022Z,98595.66
2022-11-10T12:03:28.617Z,98587.63
2022-11-10T12:06:41.574Z,98598.34
2022-11-10T12:09:31.948Z,98592.44
2022-11-10T12:12:22.974Z,98591.88
2022-11-10T12:15:21.294Z,98592.25
2022-11-10T12:18:18.844Z,98588.84
2022-11-10T12:21:19.419Z,98590.94
2022-11-10T12:24:09.816Z,98589.69
2022-11-10T12:26:55.524Z,98596.97
2022-11-10T12:30:01.995Z,98600.13
2022-11-10T12:32:58.448Z,98609.75
2022-11-10T12:35:46.346Z,98607.63
2022-11-10T12:38:40.075Z,98609.28
2022-11-10T12:41:28.301Z,98608.59
2022-11-10T12:44:21.371Z,98612.44
2022-11-10T12:47:10.123Z,98616.00
2022-11-10T12:50:13.733Z,98615.00
2022-11-10T12:53:06.108Z,98625.31
2022-11-10T12:56:03.294Z,98622.09
2022-11-10T12:58:48.465Z,98636.97
2022-11-10T13:01:33.655Z,98639.69
2022-11-10T13:04:20.229Z,98640.53
2022-11-10T13:07:11.821Z,98650.38
2022-11-10T13:10:15.493Z,98652.22
2022-11-10T13:13:03.585Z,98659.03
2022-11-10T13:15:52.975Z,98647.75
2022-11-10T13:18:52.512Z,98644.19
2022-11-10T13:21:52.801Z,98643.72
2022-11-10T13:24:38.829Z,98649.31
2022-11-10T13:27:33.120Z,98656.03
2022-11-10T13:30:40.752Z,98641.09
2022-11-10T13:33:25.699Z,98640.66
2022-11-10T13:36:10.725Z,98643.53
2022-11-10T13:38:55.843Z,98637.22
2022-11-10T13:41:46.377Z,98644.78
2022-11-10T13:44:33.559Z,98654.47
2022-11-10T13:47:37.501Z,98652.88
2022-11-10T13:50:40.750Z,98651.09
2022-11-10T13:53:28.681Z,98662.69
2022-11-10T13:56:19.641Z,98666.75
2022-11-10T13:59:25.179Z,98663.13
2022-11-10T14:02:28.980Z,98667.00
2022-11-10T14:05:43.122Z,98663.41
2022-11-10T14:08:29.559Z,98665.44
2022-11-10T14:11:48.680Z,98663.38
2022-11-10T14:14:43.430Z,98666.50
2022-11-10T14:17:31.107Z,98674.69
2022-11-10T14:20:42.421Z,98678.66
2022-11-10T14:23:36.264Z,98682.88
2022-11-10T14:26:34.807Z,98692.63
2022-11-10T14:29:30.820Z,98696.81
2022-11-10T14:32:22.742Z,98698.19
2022-11-10T14:35:17.464Z,98708.06
2022-11-10T14:38:05.261Z,98709.63
2022-11-10T14:40:51.586Z,98703.22
2022-11-10T14:43:38.247Z,98717.81
2022-11-10T14:46:23.966Z,98721.66
2022-11-10T14:49:09.936Z,98720.13
2022-11-10T14:51:57.361Z,98723.88
2022-11-10T14:54:44.716Z,98715.53
2022-11-10T14:57:29.785Z,98722.31
2022-11-10T15:00:17.376Z,98719.41
2022-11-10T15:03:03.029Z,98706.06
2022-11-10T15:05:48.519Z,98715.72
2022-11-10T15:08:33.982Z,98715.50
2022-11-10T15:11:51.636Z,98714.03
2022-11-10T15:14:37.056Z,98716.34
2022-11-10T15:17:42.096Z,98714.25
2022-11-10T15:20:53.380Z,98718.44
2022-11-10T15:23:39.846Z,98720.88
2022-11-10T15:26:26.501Z,98724.66
2022-11-10T15:29:22.162Z,98729.69
2022-11-10T15:32:14.343Z,98747.78
2022-11-10T15:35:09.997Z,98749.97
2022-11-10T15:38:06.228Z,98750.94
2022-11-10T15:40:52.564Z,98760.00
2022-11-10T15:43:37.560Z,98761.41
2022-11-10T15:46:24.556Z,98763.63
2022-11-10T15:49:17.118Z,98759.69
2022-11-10T15:52:04.202Z,98760.19
2022-11-10T15:54:50.373Z,98756.25
2022-11-10T15:57:35.308Z,98757.38
2022-11-10T16:00:20.341Z,98769.09
2022-11-10T16:03:05.535Z,98775.09
2022-11-10T16:05:50.418Z,98791.91
2022-11-10T16:08:35.491Z,98788.47
2022-11-10T16:11:21.457Z,98800.94
2022-11-10T16:14:06.364Z,98800.41
2022-11-10T16:16:51.561Z,98799.22
2022-11-10T16:19:36.569Z,98795.38
2022-11-10T16:22:21.446Z,98804.88
2022-11-10T16:25:06.570Z,98812.63
2022-11-10T16:27:51.669Z,98816.19
2022-11-10T16:30:36.676Z,98826.59
2022-11-10T16:33:23.028Z,98819.28
2022-11-10T16:36:22.254Z,98822.94
2022-11-10T16:39:15.221Z,98828.31
2022-11-10T16:42:00.424Z,98824.66
2022-11-10T16:44:45.293Z,98834.97
2022-11-10T16:47:31.067Z,98841.81
2022-11-10T16:50:32.874Z,98836.78
2022-11-10T16:53:20.634Z,98843.31
2022-11-10T16:56:05.865Z,98845.47
2022-11-10T16:58:51.147Z,98834.53
2022-11-10T17:01:36.856Z,98851.47
2022-11-10T17:04:22.080Z,98869.41
2022-11-10T17:07:14.226Z,98865.22
2022-11-10T17:10:00.643Z,98867.34
2022-11-10T17:12:46.630Z,98874.69
2022-11-10T17:15:32.315Z,98873.53
2022-11-10T17:18:20.107Z,98876.09
2022-11-10T17:21:06.203Z,98887.75
2022-11-10T17:23:51.366Z,98890.28
2022-11-10T17:26:36.402Z,98883.41
2022-11-10T17:29:21.936Z,98893.94
2022-11-10T17:32:06.877Z,98892.84
2022-11-10T17:34:51.833Z,98890.34
2022-11-10T17:37:37.209Z,98892.59
2022-11-10T17:40:23.413Z,98903.16
2022-11-10T17:43:12.304Z,98907.63
2022-11-10T17:45:57.175Z,98921.84
2022-11-10T17:48:42.352Z,98927.78
2022-11-10T17:51:27.434Z,98923.25
2022-11-10T17:54:13.539Z,98935.25
2022-11-10T17:56:58.689Z,98930.69
2022-11-10T17:59:43.859Z,98943.16
2022-11-10T18:02:28.756Z,98940.91
2022-11-10T18:05:14.883Z,98939.75
2022-11-10T18:08:00.120Z,98949.00
2022-11-10T18:10:49.236Z,98954.97
2022-11-10T18:13:34.458Z,98961.19
2022-11-10T18:16:19.342Z,98958.66
2022-11-10T18:19:05.540Z,98958.22
2022-11-10T18:21:50.484Z,98968.31
2022-11-10T18:24:35.324Z,98962.53
2022-11-10T18:27:20.265Z,98963.53
2022-11-10T18:30:05.734Z,98973.97
2022-11-10T18:32:51.061Z,98973.25
2022-11-10T18:35:38.447Z,98965.72
2022-11-10T18:38:23.281Z,98972.03
2022-11-10T18:41:26.914Z,98969.44
2022-11-10T18:44:12.180Z,98973.41
2022-11-10T18:46:56.944Z,98973.44
2022-11-10T18:49:41.929Z,98979.41
2022-11-10T18:52:26.834Z,98991.06
2022-11-10T18:55:12.041Z,98990.69
2022-11-10T18:57:57.172Z,98991.06
2022-11-10T19:00:41.956Z,99003.59
2022-11-10T19:03:26.915Z,99007.91
2022-11-10T19:06:12.687Z,99010.88
2022-11-10T19:08:57.576Z,99020.31
2022-11-10T19:11:43.729Z,99011.72
2022-11-10T19:14:28.556Z,99018.03
2022-11-10T19:17:13.416Z,99025.13
2022-11-10T19:19:58.222Z,99037.16
2022-11-10T19:22:43.104Z,99042.72
2022-11-10T19:25:28.029Z,99050.38
2022-11-10T19:28:12.969Z,99061.09
2022-11-10T19:31:05.100Z,99058.75
2022-11-10T19:33:51.080Z,99059.69
2022-11-10T19:36:36.066Z,99064.03
2022-11-10T19:39:21.009Z,99072.84
2022-11-10T19:42:05.928Z,99069.56
2022-11-10T19:44:50.822Z,99063.28
2022-11-10T19:47:35.589Z,99065.13
2022-11-10T19:50:20.491Z,99059.38
2022-11-10T19:53:05.408Z,99057.00
2022-11-10T19:55:50.517Z,99051.28
2022-11-10T19:58:36.775Z,99053.00
2022-11-10T20:01:22.290Z,99058.69
2022-11-10T20:04:08.605Z,99046.72
2022-11-10T20:07:14.343Z,99052.25
2022-11-10T20:10:00.253Z,99054.06
2022-11-10T20:12:45.451Z,99065.69
2022-11-10T20:15:30.260Z,99069.28
2022-11-10T20:18:15.256Z,99085.06
2022-11-10T20:21:07.225Z,99086.38
2022-11-10T20:23:53.243Z,99092.06
2022-11-10T20:26:38.378Z,99093.78
2022-11-10T20:29:23.261Z,99092.38
2022-11-10T20:32:07.962Z,99096.50
2022-11-10T20:34:53.021Z,99097.84
2022-11-10T20:37:38.164Z,99102.47
2022-11-10T20:40:43.470Z,99101.13
2022-11-10T20:43:28.489Z,99104.66
2022-11-10T20:46:33.274Z,99107.25
2022-11-10T20:49:20.281Z,99107.94
2022-11-10T20:52:05.133Z,99115.84
2022-11-10T20:54:49.997Z,99120.09
2022-11-10T20:57:34.981Z,99119.31
2022-11-10T21:00:19.994Z,99126.03
2022-11-10T21:03:04.970Z,99137.81
2022-11-10T21:05:54.498Z,99136.88
2022-11-10T21:08:39.611Z,99125.53
2022-11-10T21:11:43.363Z,99129.88
2022-11-10T21:14:28.460Z,99135.91
2022-11-10T21:17:13.246Z,99141.06
2022-11-10T21:19:58.371Z,99145.88
2022-11-10T21:22:43.530Z,99145.63
2022-11-10T21:25:29.061Z,99144.41
2022-11-10T21:28:14.344Z,99150.34
2022-11-10T21:31:03.840Z,99146.22
2022-11-10T21:33:48.881Z,99147.41
2022-11-10T21:36:33.877Z,99161.91
2022-11-10T21:39:18.832Z,99162.06
2022-11-10T21:42:04.160Z,99167.59
2022-11-10T21:44:49.396Z,99163.66
2022-11-10T21:47:34.584Z,99170.88
2022-11-10T21:50:19.768Z,99169.66
2022-11-10T21:53:08.258Z,99176.31
2022-11-10T21:55:57.428Z,99189.06
2022-11-10T21:58:43.230Z,99190.47
2022-11-10T22:01:28.185Z,99197.03
2022-11-10T22:04:14.097Z,99192.72
2022-11-10T22:07:18.294Z,99182.06
2022-11-10T22:10:22.142Z,99190.28
2022-11-10T22:13:32.797Z,99186.00
2022-11-10T22:16:39.728Z,99190.81
2022-11-10T22:19:24.991Z,99188.19
2022-11-10T22:22:10.548Z,99183.88
2022-11-10T22:24:55.783Z,99184.06
2022-11-10T22:27:40.698Z,99179.19
2022-11-10T22:30:25.600Z,99190.19
2022-11-10T22:33:28.812Z,99189.56
2022-11-10T22:36:15.021Z,99191.63
2022-11-10T22:39:03.336Z,99198.16
2022-11-10T22:42:07.789Z,99202.81
2022-11-10T22:44:52.809Z,99196.94
2022-11-10T22:47:56.435Z,99194.41
2022-11-10T22:50:41.538Z,99188.41
2022-11-10T22:53:26.934Z,99195.25
2022-11-10T22:56:11.861Z,99206.88
2022-11-10T22:58:59.805Z,99208.91
2022-11-10T23:01:45.922Z,99211.25
2022-11-10T23:04:30.889Z,99209.38
2022-11-10T23:07:15.652Z,99215.06
2022-11-10T23:10:00.595Z,99209.38
2022-11-10T23:12:45.464Z,99206.25
2022-11-10T23:15:34.534Z,99202.81
2022-11-10T23:18:19.980Z,99214.72
2022-11-10T23:21:06.554Z,99208.59
2022-11-10T23:23:51.590Z,99209.38
2022-11-10T23:26:36.622Z,99209.06
2022-11-10T23:29:21.678Z,99209.63
2022-11-10T23:32:06.578Z,99211.03
2022-11-10T23:34:51.470Z,99214.81
2022-11-10T23:37:36.331Z,99212.03
2022-11-10T23:40:21.045Z,99212.47
2022-11-10T23:43:06.089Z,99216.38
2022-11-10T23:46:06.374Z,99215.06
2022-11-10T23:48:52.585Z,99207.97
2022-11-10T23:51:37.393Z,99199.78
2022-11-10T23:54:22.351Z,99194.13
2022-11-10T23:57:07.424Z,99199.75
2022-11-10T23:59:52.598Z,99206.69
